Etusivu
METAR-TAF:

METAR-TAF

Lentoasemat :

Tromssa, Norja

Tromssan lentoasema

Leveyspiiri: 69-41N, Pituuspiiri: 018-55E, korkeus merenpinnasta: 1 m

Tämänhetkinen sää

Tämä raportti tehtiin 40 minuuttia sitten, kello 13.50 UTC
Tuuli 13 kn koillisesta
Lämpötila 12°C
Kosteus 88%
Ilmanpaine 1006 hPa
Näkyvyys 10 km tai enemmän
ei pilviä alle 1500 m:ssä eikä cumulonimbus-pilviä

METAR: ENTC 271350Z 04013KT CAVOK 12/10 Q1006 NOSIG RMK WIND 2600FT 21004KT

Aika: 16:30 (14:30 UTC)

Sääennuste

Ennuste voimassa 27. päivästä klo 12 UTC - 28. päivään klo 12 UTC
Tuuli 8 kn pohjoisesta/koillisesta
Näkyvyys 10 km tai enemmän
Muutamia pilviä 1000 ft:n korkeudessa
Todennäköisyys 30% :
Ajoittain
27. päivästä klo 20 UTC - 28. päivään klo 09 UTC
Hajonneita pilviä 400 ft:n korkeudessa

TAF: ENTC 2712/2812 03008KT 9999 FEW010 PROB30 TEMPO 2720/2809 BKN004

Säähavainnot ja -ennusteet yli 4000 lentoasemalta (METAR- ja TAF-raportit).

Käytössä olevat sääasemat on merkitty karttaan keltaisilla ja punaisilla pisteillä.

Aseta hiiri pisteen päälle nähdäksesi sääaseman nimen.

Klikkaa sitten nähdäksesi säähavainnot ja -ennusteet.

Kartan vaihtaminen: klikkaa mustalla rastilla varustettuja vihreitä pisteitä, niin voit zoomata sisään; viivalla varustettua vihreää pistettä, niin voit zoomata ulos tai vihreitä nuolia, niin pääset viereisille kartoille.


METAR-TAF: